Atalaia Do Norte, Brazil
Current Conditions -  °F | °C
As of 10:00 AM on Tuesday 21 Oct 2014 (Local Time) from SKLT Reporting Station
Drizzle Drizzle  
Wind Chill: 75°   Ceiling: 600
Heat Index: 75°   Visibility: 4mi
Dew Point: 73°   Wind: 3mph
Humidity: 94%   Direction: 270°W
Pressure: 29.99"   Gusts: NA
Location:  4.39°S, 70.21°W
Report Text: SKLT 211400Z 27003KT 7000 -DZ BKN006 BKN070 24/23 A2999 RMK AD OPR IMC
Loading
Personal Weather Stations






























Interactive Weather Map
Tropical Storm Tracking
New forecast layout! Learn more

10-Day Weather Forecast

Advertisements
Track Severe Weather on mobile